Home > Products > Valid Products > TAF

000
FTUS41 KRLX 191700
TAFPKB
TAF
KPKB 191734Z 1918/2018 12011G22KT P6SM OVC070
     FM200200 13010G18KT 6SM SHRA OVC030
     FM200400 14009KT P6SM OVC040
     FM200800 18008KT P6SM OVC120
     FM201400 20012G17KT P6SM VCTS BKN040CB=



000
FTUS41 KRLX 191700
TAFEKN
TAF
KEKN 191734Z 1918/2018 15014G27KT P6SM OVC100
     FM192100 12014G27KT 6SM SHRA OVC090
     FM200400 14012G20KT 6SM SHRA OVC060
     FM200700 16008KT P6SM OVC035
     FM201300 23008KT P6SM BKN250
     FM201600 22010G16KT P6SM VCTS BKN050CB=



000
FTUS41 KRLX 191700
TAFCKB
TAF
KCKB 191734Z 1918/2018 13013G23KT P6SM OVC120
     FM192000 12013G22KT P6SM SHRA OVC080
     FM200500 13011G17KT P6SM OVC050
     FM200800 18008KT P6SM OVC035
     FM201600 20011G17KT P6SM VCTS BKN050CB=



000
FTUS41 KRLX 191700
TAFHTS
TAF
KHTS 191734Z 1918/2018 10005KT 5SM -RA BR OVC060
     FM192200 13012G21KT 5SM SHRA BR OVC030
     FM200000 13011G20KT 6SM SHRA OVC040
     FM200500 20010G17KT P6SM OVC040
     FM201100 19009KT 6SM BR BKN250
     FM201600 21011G17KT P6SM VCTS BKN040CB=



000
FTUS41 KRLX 191700
TAFBKW
TAF
KBKW 191734Z 1918/2018 12019G29KT 6SM -SHRA FEW015 BKN035 OVC100
     FM192200 13020G30KT 6SM SHRA OVC018
     FM200500 16012G19KT P6SM OVC016
     FM200700 20010KT P6SM BKN030
     FM201200 20009KT P6SM SCT045
     FM201300 21010G16KT P6SM BKN045
     FM201700 22014G21KT P6SM VCTS BKN035CB=



000
FTUS41 KRLX 191700
TAFCRW
TAF
KCRW 191734Z 1918/2018 14012G22KT 6SM -RA FEW040 OVC090
     FM200200 14012G21KT P6SM OVC060
     FM200500 18010G15KT P6SM BKN035
     FM201500 22013G20KT P6SM VCTS OVC050CB=



000
FTUS41 KRLX 191700
TAFCRW
TAF
KCRW 191734Z 1918/2018 14012G22KT 6SM -RA FEW040 OVC090
     FM200200 14012G21KT P6SM OVC060
     FM200500 18010G15KT P6SM BKN035
     FM201500 22013G20KT P6SM VCTS OVC050CB=



000
FTUS41 KRLX 191700
TAFCKB
TAF
KCKB 191734Z 1918/2018 13013G23KT P6SM OVC120
     FM192000 12013G22KT P6SM SHRA OVC080
     FM200500 13011G17KT P6SM OVC050
     FM200800 18008KT P6SM OVC035
     FM201600 20011G17KT P6SM VCTS BKN050CB=



000
FTUS41 KRLX 191700
TAFPKB
TAF
KPKB 191734Z 1918/2018 12011G22KT P6SM OVC070
     FM200200 13010G18KT 6SM SHRA OVC030
     FM200400 14009KT P6SM OVC040
     FM200800 18008KT P6SM OVC120
     FM201400 20012G17KT P6SM VCTS BKN040CB=



000
FTUS41 KRLX 191700
TAFEKN
TAF
KEKN 191734Z 1918/2018 15014G27KT P6SM OVC100
     FM192100 12014G27KT 6SM SHRA OVC090
     FM200400 14012G20KT 6SM SHRA OVC060
     FM200700 16008KT P6SM OVC035
     FM201300 23008KT P6SM BKN250
     FM201600 22010G16KT P6SM VCTS BKN050CB=



000
FTUS41 KRLX 191700
TAFHTS
TAF
KHTS 191734Z 1918/2018 10005KT 5SM -RA BR OVC060
     FM192200 13012G21KT 5SM SHRA BR OVC030
     FM200000 13011G20KT 6SM SHRA OVC040
     FM200500 20010G17KT P6SM OVC040
     FM201100 19009KT 6SM BR BKN250
     FM201600 21011G17KT P6SM VCTS BKN040CB=



000
FTUS41 KRLX 191700
TAFBKW
TAF
KBKW 191734Z 1918/2018 12019G29KT 6SM -SHRA FEW015 BKN035 OVC100
     FM192200 13020G30KT 6SM SHRA OVC018
     FM200500 16012G19KT P6SM OVC016
     FM200700 20010KT P6SM BKN030
     FM201200 20009KT P6SM SCT045
     FM201300 21010G16KT P6SM BKN045
     FM201700 22014G21KT P6SM VCTS BKN035CB=



000
FTUS41 KRLX 191500 AAA
TAFCRW
TAF AMD
KCRW 191505Z 1915/2012 14014G23KT 6SM -RA FEW040 SCT080 OVC090
     FM191600 12013KT 6SM -SHRA BR OVC035
     FM191900 12014G28KT 3SM SHRA BR OVC025
     FM200100 14013G25KT 6SM -SHRA BR OVC035
     FM200200 15011G23KT P6SM BKN035
     FM200500 19010G17KT P6SM BKN035
     FM200700 20008G13KT P6SM BKN025
     FM201100 18006KT 6SM BR BKN150=



000
FTUS41 KRLX 191500 AAA
TAFHTS
TAF AMD
KHTS 191505Z 1915/2012 10009G16KT 4SM RA BR BKN070 OVC090
     FM191800 11013G26KT 2SM SHRA BR OVC015
     FM200000 14010G20KT 4SM SHRA BR VCTS OVC025CB
     FM200300 19010G18KT 5SM -SHRA BR BKN025
     FM200800 19008KT P6SM BKN025
     FM200900 18006KT P6SM BKN120=



000
FTUS41 KRLX 191500 AAA
TAFBKW
TAF AMD
KBKW 191505Z 1915/2012 12015G28KT 6SM -RA OVC100
     FM191700 12020G32KT 5SM -SHRA OVC008
     FM200200 14013G24KT P6SM SHRA BKN025
     FM200300 15011G21KT P6SM BKN025
     FM200700 18009G15KT P6SM BKN015=



000
FTUS41 KRLX 191500 AAA
TAFPKB
TAF AMD
KPKB 191505Z 1915/2012 09008G15KT P6SM OVC100
     FM191600 11011G18KT P6SM BKN050
     FM191900 12012G20KT 5SM SHRA BR OVC040
     FM192000 11013G23KT 3SM SHRA BR OVC025
     FM200100 13012G20KT 4SM SHRA BR OVC035
     FM200300 17010G16KT 6SM SHRA BR OVC040
     FM200700 18008G13KT 6SM BR BKN015
     FM200800 19007KT P6SM BKN015=



000
FTUS41 KRLX 191500 AAA
TAFEKN
TAF AMD
KEKN 191505Z 1915/2012 11009G18KT P6SM OVC100
     FM191800 15011G23KT P6SM BKN060
     FM192100 14013G26KT P6SM -SHRA OVC035
     FM200200 15014G28KT 5SM SHRA BR OVC025
     FM200500 16009G16KT 4SM SHRA BR OVC035
     FM200600 16008KT 4SM BR BKN040
     FM200800 19005KT 4SM BR BKN025
     FM201100 VRB03KT 3SM BR BKN015=



000
FTUS41 KRLX 191500 AAA
TAFCKB
TAF AMD
KCKB 191505Z 1915/2012 09011G18KT P6SM OVC100
     FM191800 11013G18KT P6SM BKN070
     FM192000 10013G23KT P6SM -SHRA OVC040
     FM192200 10013G25KT 4SM SHRA BR OVC035
     FM200400 16009G15KT P6SM BKN035
     FM201100 18004KT 6SM BR BKN015=



000
FTUS41 KRLX 191100
TAFCRW
TAF
KCRW 191122Z 1912/2012 VRB03KT P6SM BKN200 WS020/16030KT
     FM191300 11007KT P6SM BKN100
     FM191600 12013KT 6SM -SHRA BR OVC035
     FM191900 12014G28KT 3SM SHRA BR OVC025
     FM200100 14013G25KT 6SM -SHRA BR OVC035
     FM200200 15011G23KT P6SM BKN035
     FM200500 19010G17KT P6SM BKN035
     FM200700 20008G13KT P6SM BKN025
     FM201100 18006KT 6SM BR BKN150=



000
FTUS41 KRLX 191100
TAFEKN
TAF
KEKN 191122Z 1912/2012 13005KT P6SM BKN250 WS020/16030KT
     FM191400 16010KT P6SM BKN150
     FM191800 15011G23KT P6SM BKN060
     FM192100 14013G26KT P6SM -SHRA OVC035
     FM200200 15014G28KT 5SM SHRA BR OVC025
     FM200500 16009G16KT 4SM SHRA BR OVC035
     FM200600 16008KT 4SM BR BKN040
     FM200800 19005KT 4SM BR BKN025
     FM201100 VRB03KT 3SM BR BKN015=



000
FTUS41 KRLX 191100
TAFCKB
TAF
KCKB 191122Z 1912/2012 06004KT P6SM BKN250 WS020/16030KT
     FM191400 08009G16KT P6SM BKN150
     FM191800 11013G18KT P6SM BKN070
     FM192000 10013G23KT P6SM -SHRA OVC040
     FM192200 10013G25KT 4SM SHRA BR OVC035
     FM200400 16009G15KT P6SM BKN035
     FM201100 18004KT 6SM BR BKN015=



000
FTUS41 KRLX 191100
TAFHTS
TAF
KHTS 191122Z 1912/2012 10005KT P6SM BKN150 WS020/16030KT
     FM191300 10008KT P6SM OVC100
     FM191500 11014G27KT 4SM SHRA BR OVC025
     FM191800 11013G26KT 2SM SHRA BR OVC015
     FM200000 14010G20KT 4SM SHRA BR VCTS OVC025CB
     FM200300 19010G18KT 5SM -SHRA BR BKN025
     FM200800 19008KT P6SM BKN025
     FM200900 18006KT P6SM BKN120=



000
FTUS41 KRLX 191100
TAFBKW
TAF
KBKW 191122Z 1912/2012 12012G20KT P6SM SCT025 BKN200
     FM191300 13014G24KT P6SM BKN015 OVC025
     FM191500 12018G30KT P6SM SCT008 OVC010
     FM191700 12020G32KT P6SM -SHRA OVC008
     FM200200 14013G24KT P6SM SHRA BKN025
     FM200300 15011G21KT P6SM BKN025
     FM200700 18009G15KT P6SM BKN015=



000
FTUS41 KRLX 191100
TAFPKB
TAF
KPKB 191122Z 1912/2012 09007KT P6SM BKN070
     FM191600 11011KT P6SM BKN050
     FM191900 12012G20KT 5SM SHRA BR OVC040
     FM192000 11013G23KT 3SM SHRA BR OVC025
     FM200100 13012G20KT 4SM SHRA BR OVC035
     FM200300 17010G16KT 6SM SHRA BR OVC040
     FM200700 18008G13KT 6SM BR BKN015
     FM200800 19007KT P6SM BKN015=



000
FTUS41 KRLX 191100
TAFHTS
TAF
KHTS 191122Z 1912/2012 10005KT P6SM BKN150 WS020/16030KT
     FM191300 10008KT P6SM OVC100
     FM191500 11014G27KT 4SM SHRA BR OVC025
     FM191800 11013G26KT 2SM SHRA BR OVC015
     FM200000 14010G20KT 4SM SHRA BR VCTS OVC025CB
     FM200300 19010G18KT 5SM -SHRA BR BKN025
     FM200800 19008KT P6SM BKN025
     FM200900 18006KT P6SM BKN120=



000
FTUS41 KRLX 191100
TAFBKW
TAF
KBKW 191122Z 1912/2012 12012G20KT P6SM SCT025 BKN200
     FM191300 13014G24KT P6SM BKN015 OVC025
     FM191500 12018G30KT P6SM SCT008 OVC010
     FM191700 12020G32KT P6SM -SHRA OVC008
     FM200200 14013G24KT P6SM SHRA BKN025
     FM200300 15011G21KT P6SM BKN025
     FM200700 18009G15KT P6SM BKN015=



000
FTUS41 KRLX 191100
TAFPKB
TAF
KPKB 191122Z 1912/2012 09007KT P6SM BKN070
     FM191600 11011KT P6SM BKN050
     FM191900 12012G20KT 5SM SHRA BR OVC040
     FM192000 11013G23KT 3SM SHRA BR OVC025
     FM200100 13012G20KT 4SM SHRA BR OVC035
     FM200300 17010G16KT 6SM SHRA BR OVC040
     FM200700 18008G13KT 6SM BR BKN015
     FM200800 19007KT P6SM BKN015=



000
FTUS41 KRLX 191100
TAFCRW
TAF
KCRW 191122Z 1912/2012 VRB03KT P6SM BKN200 WS020/16030KT
     FM191300 11007KT P6SM BKN100
     FM191600 12013KT 6SM -SHRA BR OVC035
     FM191900 12014G28KT 3SM SHRA BR OVC025
     FM200100 14013G25KT 6SM -SHRA BR OVC035
     FM200200 15011G23KT P6SM BKN035
     FM200500 19010G17KT P6SM BKN035
     FM200700 20008G13KT P6SM BKN025
     FM201100 18006KT 6SM BR BKN150=



000
FTUS41 KRLX 191100
TAFCKB
TAF
KCKB 191122Z 1912/2012 06004KT P6SM BKN250 WS020/16030KT
     FM191400 08009G16KT P6SM BKN150
     FM191800 11013G18KT P6SM BKN070
     FM192000 10013G23KT P6SM -SHRA OVC040
     FM192200 10013G25KT 4SM SHRA BR OVC035
     FM200400 16009G15KT P6SM BKN035
     FM201100 18004KT 6SM BR BKN015=



000
FTUS41 KRLX 191100
TAFEKN
TAF
KEKN 191122Z 1912/2012 13005KT P6SM BKN250 WS020/16030KT
     FM191400 16010KT P6SM BKN150
     FM191800 15011G23KT P6SM BKN060
     FM192100 14013G26KT P6SM -SHRA OVC035
     FM200200 15014G28KT 5SM SHRA BR OVC025
     FM200500 16009G16KT 4SM SHRA BR OVC035
     FM200600 16008KT 4SM BR BKN040
     FM200800 19005KT 4SM BR BKN025
     FM201100 VRB03KT 3SM BR BKN015=



000
FTUS41 KRLX 190800 AAA
TAFBKW
TAF AMD
KBKW 190850Z 1909/2006 12010KT P6SM BKN100
     FM191100 13012G19KT P6SM BKN060
     FM191400 12018G26KT P6SM BKN015 OVC025
     FM191600 12021G32KT 6SM -SHRA OVC010
     FM200100 14016G27KT 6SM -SHRA OVC015
     FM200300 15011G17KT P6SM BKN025
     FM200500 17008KT P6SM BKN025=



000
FTUS41 KRLX 190800 AAA
TAFHTS
TAF AMD
KHTS 190850Z 1909/2006 08006KT P6SM BKN080
     FM191400 11011G16KT 5SM -SHRA BR OVC035
     FM191500 11013G21KT 4SM SHRA BR OVC025
     FM191600 11013G23KT 3SM SHRA BR OVC015
     FM191800 11012G22KT 2SM SHRA BR OVC015
     FM192100 14014G21KT 3SM -SHRA BR OVC025
     FM200000 14009KT 4SM SHRA BR OVC025
     FM200200 18008G13KT 5SM BR BKN035=



000
FTUS41 KRLX 190800 AAA
TAFPKB
TAF AMD
KPKB 190850Z 1909/2006 08007KT P6SM BKN250
     FM191100 10007KT P6SM BKN090
     FM191400 10010G15KT P6SM BKN070
     FM191600 11011G23KT P6SM -SHRA BKN060
     FM192000 11013G20KT 3SM SHRA BR OVC025
     FM200100 13012G21KT 4SM SHRA BR OVC035
     FM200300 17010G15KT 6SM SHRA BR OVC040
     FM200500 18007KT 6SM BR BKN025=



000
FTUS41 KRLX 190800 AAA
TAFEKN
TAF AMD
KEKN 190850Z 1909/2006 VRB03KT P6SM BKN150
     FM191300 14007KT P6SM BKN070
     FM191600 16010G16KT P6SM BKN060
     FM192000 14012G19KT P6SM -SHRA OVC035
     FM200500 16007KT 4SM -SHRA BR OVC035=



000
FTUS41 KRLX 190800 AAA
TAFCKB
TAF AMD
KCKB 190850Z 1909/2006 VRB03KT P6SM BKN250
     FM191100 08006KT P6SM BKN090
     FM191400 10010G15KT P6SM BKN070
     FM191800 11013G23KT P6SM -SHRA BKN060
     FM192100 10013G20KT 3SM SHRA BR OVC025
     FM192300 11014G20KT 5SM SHRA BR OVC035
     FM200500 15007KT 6SM SHRA BR OVC035=



000
FTUS41 KRLX 190800 AAA
TAFCRW
TAF AMD
KCRW 190850Z 1909/2006 08005KT P6SM BKN120
     FM191300 12010G15KT P6SM BKN060
     FM191500 12013G23KT P6SM OVC035
     FM191700 12014G22KT 5SM SHRA BR OVC035
     FM191900 12014G21KT 3SM SHRA BR OVC025
     FM200100 14013G22KT 6SM SHRA BR OVC035
     FM200300 16009KT 6SM BR BKN040=



000
FTUS41 KRLX 190500
TAFBKW
TAF
KBKW 190528Z 1906/2006 12010KT P6SM BKN050
     FM190900 12017KT P6SM BKN025
     FM191100 13018G31KT P6SM OVC025
     FM191400 12020G31KT P6SM OVC015
     FM191500 12021G32KT 6SM -SHRA OVC010
     FM200100 14016G27KT 6SM -SHRA OVC015
     FM200300 15011G17KT P6SM BKN025
     FM200500 17008KT P6SM BKN025=



000
FTUS41 KRLX 190500
TAFCKB
TAF
KCKB 190528Z 1906/2006 VRB03KT P6SM BKN250
     FM191100 08006KT P6SM BKN090
     FM191400 10010G15KT P6SM BKN070
     FM191800 11013G23KT P6SM -SHRA BKN060
     FM192100 10013G20KT 3SM SHRA BR OVC025
     FM192300 11014G20KT 5SM SHRA BR OVC035
     FM200500 15007KT 6SM SHRA BR OVC035=



000
FTUS41 KRLX 190500
TAFCRW
TAF
KCRW 190528Z 1906/2006 06004KT P6SM SCT080
     FM190800 08005KT P6SM BKN070
     FM191300 12010G15KT P6SM BKN060
     FM191500 12013G23KT P6SM OVC035
     FM191700 12014G22KT 5SM SHRA BR OVC035
     FM191900 12014G21KT 3SM SHRA BR OVC025
     FM200100 14013G22KT 6SM SHRA BR OVC035
     FM200300 16009KT 6SM BR BKN040=



000
FTUS41 KRLX 190500
TAFPKB
TAF
KPKB 190528Z 1906/2006 07005KT P6SM BKN250
     FM191100 09006KT P6SM BKN090
     FM191400 10010G15KT P6SM BKN070
     FM191600 11011G23KT P6SM -SHRA BKN060
     FM192000 11013G20KT 3SM SHRA BR OVC025
     FM200100 13012G21KT 4SM SHRA BR OVC035
     FM200300 17010G15KT 6SM SHRA BR OVC040
     FM200500 18007KT 6SM BR BKN025=



000
FTUS41 KRLX 190500
TAFEKN
TAF
KEKN 190528Z 1906/2006 VRB03KT P6SM BKN150
     FM191300 14007KT P6SM BKN070
     FM191600 16010G16KT P6SM BKN060
     FM192000 14012G19KT P6SM -SHRA OVC035
     FM200500 16007KT 4SM -SHRA BR OVC035=



000
FTUS41 KRLX 190500
TAFHTS
TAF
KHTS 190528Z 1906/2006 06007KT P6SM BKN200
     FM190800 08006KT P6SM BKN100
     FM191400 11011G16KT 5SM BR OVC035
     FM191500 11013G21KT 4SM SHRA BR OVC025
     FM191600 11013G23KT 3SM SHRA BR OVC015
     FM191800 11012G22KT 2SM SHRA BR OVC015
     FM192100 14014G21KT 3SM -SHRA BR OVC025
     FM200000 14009KT 4SM SHRA BR OVC025
     FM200200 18008G13KT 5SM BR BKN035=



000
FTUS41 KRLX 190200 AAA
TAFHTS
TAF AMD
KHTS 190212Z 1902/1924 06006KT P6SM SKC
     FM190900 09007KT P6SM BKN050
     FM191100 11012G18KT P6SM OVC040
     FM191300 11013G23KT 6SM -SHRA OVC035
     FM191500 11012G22KT 4SM SHRA BR OVC024
     FM192100 14014G20KT P6SM VCTS BKN030CB=



000
FTUS41 KRLX 190200 AAA
TAFEKN
TAF AMD
KEKN 190212Z 1902/1924 VRB03KT P6SM SKC
     FM190800 13007KT P6SM BKN070
     FM191300 15012G20KT P6SM BKN060
     FM191700 15012G22KT 6SM -SHRA BKN030 OVC060=



000
FTUS41 KRLX 190200 AAA
TAFCKB
TAF AMD
KCKB 190212Z 1902/1924 05005KT P6SM SKC
     FM191000 08009KT P6SM BKN070
     FM191400 10012G22KT P6SM BKN060
     FM191800 11013G22KT 6SM -SHRA BKN035 OVC060=



000
FTUS41 KRLX 190200 AAA
TAFBKW
TAF AMD
KBKW 190212Z 1902/1924 07005KT P6SM SCT070
     FM190500 12008G16KT P6SM BKN070
     FM190800 12014G24KT P6SM BKN040
     FM191200 12020G32KT 5SM -SHRA OVC025
     FM191600 12020G30KT 4SM -SHRA BR OVC008=



000
FTUS41 KRLX 190200 AAA
TAFPKB
TAF AMD
KPKB 190212Z 1902/1924 04005KT P6SM SCT100
     FM191000 09008KT P6SM BKN070
     FM191300 10012G24KT P6SM BKN050
     FM191600 12012G25KT 5SM -SHRA BR OVC040
     FM191800 12012G24KT 4SM -SHRA BR BKN025
     FM192200 12012G19KT 6SM -SHRA BKN030=



000
FTUS41 KRLX 190200 AAA
TAFCRW
TAF AMD
KCRW 190212Z 1902/1924 07008KT P6SM SCT080
     FM190600 10007KT P6SM BKN080
     FM191100 11013G22KT P6SM BKN050
     FM191400 12015G25KT 6SM -SHRA BKN035 OVC060
     FM192200 14014G23KT 6SM SHRA BKN035=



000
FTUS41 KRLX 190200 AAA
TAFHTS
TAF AMD
KHTS 190212Z 1902/1924 06006KT P6SM SKC
     FM190900 09007KT P6SM BKN050
     FM191100 11012G18KT P6SM OVC040
     FM191300 11013G23KT 6SM -SHRA OVC035
     FM191500 11012G22KT 4SM SHRA BR OVC024
     FM192100 14014G20KT P6SM VCTS BKN030CB=



000
FTUS41 KRLX 190200 AAA
TAFBKW
TAF AMD
KBKW 190212Z 1902/1924 07005KT P6SM SCT070
     FM190500 12008G16KT P6SM BKN070
     FM190800 12014G24KT P6SM BKN040
     FM191200 12020G32KT 5SM -SHRA OVC025
     FM191600 12020G30KT 4SM -SHRA BR OVC008=



000
FTUS41 KRLX 190200 AAA
TAFCKB
TAF AMD
KCKB 190212Z 1902/1924 05005KT P6SM SKC
     FM191000 08009KT P6SM BKN070
     FM191400 10012G22KT P6SM BKN060
     FM191800 11013G22KT 6SM -SHRA BKN035 OVC060=



000
FTUS41 KRLX 190200 AAA
TAFPKB
TAF AMD
KPKB 190212Z 1902/1924 04005KT P6SM SCT100
     FM191000 09008KT P6SM BKN070
     FM191300 10012G24KT P6SM BKN050
     FM191600 12012G25KT 5SM -SHRA BR OVC040
     FM191800 12012G24KT 4SM -SHRA BR BKN025
     FM192200 12012G19KT 6SM -SHRA BKN030=



000
FTUS41 KRLX 190200 AAA
TAFEKN
TAF AMD
KEKN 190212Z 1902/1924 VRB03KT P6SM SKC
     FM190800 13007KT P6SM BKN070
     FM191300 15012G20KT P6SM BKN060
     FM191700 15012G22KT 6SM -SHRA BKN030 OVC060=



000
FTUS41 KRLX 190200 AAA
TAFCRW
TAF AMD
KCRW 190212Z 1902/1924 07008KT P6SM SCT080
     FM190600 10007KT P6SM BKN080
     FM191100 11013G22KT P6SM BKN050
     FM191400 12015G25KT 6SM -SHRA BKN035 OVC060
     FM192200 14014G23KT 6SM SHRA BKN035=



000
FTUS41 KRLX 182300
TAFEKN
TAF
KEKN 182333Z 1900/1924 VRB03KT P6SM SKC
     FM190800 13007KT P6SM BKN070
     FM191300 15012G20KT P6SM BKN060
     FM191700 15012G22KT 6SM -SHRA BKN030 OVC060=



000
FTUS41 KRLX 182300
TAFCRW
TAF
KCRW 182333Z 1900/1924 07008KT P6SM SCT070
     FM190600 10007KT P6SM SCT070
     FM191100 11013G22KT P6SM BKN050
     FM191400 12015G25KT 6SM -SHRA BKN035 OVC060
     FM192200 14014G23KT 6SM -SHRA BKN035=



000
FTUS41 KRLX 182300
TAFHTS
TAF
KHTS 182333Z 1900/1924 06006KT P6SM SKC
     FM190900 09007KT P6SM BKN050
     FM191100 11012G18KT P6SM OVC040
     FM191300 11013G23KT 6SM -SHRA OVC035
     FM191500 11012G22KT 4SM -SHRA BR OVC022
     FM192100 14014G20KT P6SM VCTS BKN030CB=



000
FTUS41 KRLX 182300
TAFCKB
TAF
KCKB 182333Z 1900/1924 05005KT P6SM SKC
     FM191000 08009KT P6SM BKN070
     FM191400 10012G22KT P6SM BKN060
     FM191800 11013G22KT 6SM -SHRA BKN035 OVC060=



000
FTUS41 KRLX 182300
TAFBKW
TAF
KBKW 182333Z 1900/1924 04005KT P6SM SCT070
     FM190400 12008G15KT P6SM BKN050
     FM190700 12014G24KT P6SM BKN040
     FM191100 12020G32KT 5SM -SHRA OVC025
     FM191500 12020G30KT 4SM -SHRA BR OVC008=



000
FTUS41 KRLX 182300
TAFPKB
TAF
KPKB 182333Z 1900/1924 04005KT P6SM SCT250
     FM191000 09008KT P6SM BKN070
     FM191300 10012G24KT P6SM BKN050
     FM191600 12012G25KT 5SM -SHRA BR OVC040
     FM191800 12012G24KT 4SM -SHRA BR BKN025
     FM192200 12012G19KT 6SM -SHRA BKN030=



000
FTUS41 KRLX 182300
TAFCRW
TAF
KCRW 182333Z 1900/1924 07008KT P6SM SCT070
     FM190600 10007KT P6SM SCT070
     FM191100 11013G22KT P6SM BKN050
     FM191400 12015G25KT 6SM -SHRA BKN035 OVC060
     FM192200 14014G23KT 6SM -SHRA BKN035=



000
FTUS41 KRLX 182300
TAFEKN
TAF
KEKN 182333Z 1900/1924 VRB03KT P6SM SKC
     FM190800 13007KT P6SM BKN070
     FM191300 15012G20KT P6SM BKN060
     FM191700 15012G22KT 6SM -SHRA BKN030 OVC060=



000
FTUS41 KRLX 182300
TAFHTS
TAF
KHTS 182333Z 1900/1924 06006KT P6SM SKC
     FM190900 09007KT P6SM BKN050
     FM191100 11012G18KT P6SM OVC040
     FM191300 11013G23KT 6SM -SHRA OVC035
     FM191500 11012G22KT 4SM -SHRA BR OVC022
     FM192100 14014G20KT P6SM VCTS BKN030CB=



000
FTUS41 KRLX 182300
TAFCKB
TAF
KCKB 182333Z 1900/1924 05005KT P6SM SKC
     FM191000 08009KT P6SM BKN070
     FM191400 10012G22KT P6SM BKN060
     FM191800 11013G22KT 6SM -SHRA BKN035 OVC060=



000
FTUS41 KRLX 182300
TAFPKB
TAF
KPKB 182333Z 1900/1924 04005KT P6SM SCT250
     FM191000 09008KT P6SM BKN070
     FM191300 10012G24KT P6SM BKN050
     FM191600 12012G25KT 5SM -SHRA BR OVC040
     FM191800 12012G24KT 4SM -SHRA BR BKN025
     FM192200 12012G19KT 6SM -SHRA BKN030=



000
FTUS41 KRLX 182300
TAFBKW
TAF
KBKW 182333Z 1900/1924 04005KT P6SM SCT070
     FM190400 12008G15KT P6SM BKN050
     FM190700 12014G24KT P6SM BKN040
     FM191100 12020G32KT 5SM -SHRA OVC025
     FM191500 12020G30KT 4SM -SHRA BR OVC008=



000
FTUS41 KRLX 181700
TAFCRW
TAF
KCRW 181732Z 1818/1918 07008KT P6SM SCT050 SCT300
     FM190600 09004KT P6SM BKN250
     FM191300 11009G16KT P6SM OVC120
     FM191500 12013G23KT P6SM OVC070
     FM191600 12013G23KT 6SM -SHRA OVC050=



000
FTUS41 KRLX 181700
TAFEKN
TAF
KEKN 181732Z 1818/1918 33008KT P6SM SCT250
     FM190800 13005KT P6SM BKN090
     FM191400 15008KT P6SM BKN100=



000
FTUS41 KRLX 181700
TAFCKB
TAF
KCKB 181732Z 1818/1918 36009KT P6SM SCT050 SCT250
     FM190700 07004KT P6SM BKN250
     FM191000 08006KT P6SM BKN070
     FM191400 10010G18KT P6SM BKN060=



000
FTUS41 KRLX 181700
TAFBKW
TAF
KBKW 181732Z 1818/1918 VRB03KT P6SM SCT045 SCT200
     FM190100 08006KT P6SM SCT035
     FM190400 12007KT P6SM BKN015
     FM190700 12011G17KT P6SM BKN025
     FM190900 12014G24KT P6SM BKN040
     FM191400 12020G32KT 6SM -SHRA OVC025=



000
FTUS41 KRLX 181700
TAFPKB
TAF
KPKB 181732Z 1818/1918 VRB03KT P6SM SCT250
     FM190800 09005KT P6SM BKN070
     FM191400 10010G17KT P6SM BKN050
     FM191700 12012G20KT 5SM -SHRA BR OVC040=



000
FTUS41 KRLX 181700
TAFHTS
TAF
KHTS 181732Z 1818/1918 VRB05KT P6SM SCT250
     FM190900 09006KT P6SM BKN060
     FM191400 11011G16KT P6SM OVC045
     FM191500 11013G23KT 6SM -SHRA OVC025
     FM191700 11012G22KT 4SM -SHRA BR OVC015=



000
FTUS41 KRLX 181700
TAFEKN
TAF
KEKN 181732Z 1818/1918 33008KT P6SM SCT250
     FM190800 13005KT P6SM BKN090
     FM191400 15008KT P6SM BKN100=



000
FTUS41 KRLX 181700
TAFHTS
TAF
KHTS 181732Z 1818/1918 VRB05KT P6SM SCT250
     FM190900 09006KT P6SM BKN060
     FM191400 11011G16KT P6SM OVC045
     FM191500 11013G23KT 6SM -SHRA OVC025
     FM191700 11012G22KT 4SM -SHRA BR OVC015=



000
FTUS41 KRLX 181700
TAFCKB
TAF
KCKB 181732Z 1818/1918 36009KT P6SM SCT050 SCT250
     FM190700 07004KT P6SM BKN250
     FM191000 08006KT P6SM BKN070
     FM191400 10010G18KT P6SM BKN060=



000
FTUS41 KRLX 181700
TAFCRW
TAF
KCRW 181732Z 1818/1918 07008KT P6SM SCT050 SCT300
     FM190600 09004KT P6SM BKN250
     FM191300 11009G16KT P6SM OVC120
     FM191500 12013G23KT P6SM OVC070
     FM191600 12013G23KT 6SM -SHRA OVC050=



000
FTUS41 KRLX 181700
TAFBKW
TAF
KBKW 181732Z 1818/1918 VRB03KT P6SM SCT045 SCT200
     FM190100 08006KT P6SM SCT035
     FM190400 12007KT P6SM BKN015
     FM190700 12011G17KT P6SM BKN025
     FM190900 12014G24KT P6SM BKN040
     FM191400 12020G32KT 6SM -SHRA OVC025=



000
FTUS41 KRLX 181700
TAFPKB
TAF
KPKB 181732Z 1818/1918 VRB03KT P6SM SCT250
     FM190800 09005KT P6SM BKN070
     FM191400 10010G17KT P6SM BKN050
     FM191700 12012G20KT 5SM -SHRA BR OVC040=



000
FTUS41 KRLX 181500 AAA
TAFCKB
TAF AMD
KCKB 181506Z 1815/1912 00000KT P6SM SKC
     FM190700 VRB03KT P6SM SCT050
     FM191100 10007KT P6SM SCT050=



000
FTUS41 KRLX 181500 AAA
TAFCRW
TAF AMD
KCRW 181506Z 1815/1912 00000KT P6SM FEW035 FEW300
     FM182000 03006KT P6SM SCT250
     FM190200 VRB03KT P6SM FEW050
     FM190800 12006KT P6SM BKN050=



000
FTUS41 KRLX 181500 AAA
TAFHTS
TAF AMD
KHTS 181506Z 1815/1912 03003KT P6SM SKC
     FM182000 04006KT P6SM SCT250
     FM190300 07004KT P6SM FEW050
     FM190900 11007KT P6SM BKN050=



000
FTUS41 KRLX 181500 AAA
TAFBKW
TAF AMD
KBKW 181506Z 1815/1912 VRB03KT P6SM SKC
     FM190400 10006KT P6SM BKN035
     FM190700 12010G16KT P6SM BKN025
     FM191000 12012G21KT P6SM BKN015=



000
FTUS41 KRLX 181500 AAA
TAFPKB
TAF AMD
KPKB 181506Z 1815/1912 03003KT P6SM SKC
     FM190800 08004KT P6SM SCT050
     FM191000 09005KT P6SM BKN050=



000
FTUS41 KRLX 181500 AAA
TAFEKN
TAF AMD
KEKN 181506Z 1815/1912 00000KT P6SM SKC
     FM182100 35006KT P6SM SCT250
     FM190100 00000KT P6SM SCT250
     FM190500 00000KT P6SM SCT050
     FM191100 12007KT P6SM SCT050=



000
FTUS41 KRLX 181100
TAFHTS
TAF
KHTS 181135Z 1812/1912 VRB03KT P6SM SCT250
     FM182000 04006KT P6SM SCT250
     FM190300 07004KT P6SM FEW050
     FM190900 11007KT P6SM BKN050=



000
FTUS41 KRLX 181100
TAFCRW
TAF
KCRW 181135Z 1812/1912 VRB03KT 6SM BR FEW001
     FM181300 VRB03KT P6SM SCT250
     FM182000 03006KT P6SM SCT250
     FM190200 VRB03KT P6SM FEW050
     FM190800 12006KT P6SM BKN050=



000
FTUS41 KRLX 181100
TAFEKN
TAF
KEKN 181135Z 1812/1912 00000KT 1/4SM FG VV001
     FM181300 00000KT 3SM BR SCT002
     FM181400 00000KT P6SM SCT250
     FM182100 35006KT P6SM SCT250
     FM190100 00000KT P6SM SCT250
     FM190500 00000KT P6SM SCT050
     FM191100 12007KT P6SM SCT050=



000
FTUS41 KRLX 181100
TAFCKB
TAF
KCKB 181135Z 1812/1912 00000KT 1/4SM FG VV001
     FM181300 00000KT 3SM BR SCT002
     FM181400 00000KT P6SM SCT250
     FM190700 VRB03KT P6SM SCT050
     FM191100 10007KT P6SM SCT050=



000
FTUS41 KRLX 181100
TAFPKB
TAF
KPKB 181135Z 1812/1912 00000KT 6SM BR SKC
     FM181300 00000KT P6SM SKC
     FM190800 08004KT P6SM SCT050
     FM191000 09005KT P6SM BKN050=



000
FTUS41 KRLX 181100
TAFBKW
TAF
KBKW 181135Z 1812/1912 VRB03KT P6SM FEW040
     FM190400 10006KT P6SM BKN035
     FM190700 12010G16KT P6SM BKN025
     FM191000 12012G21KT P6SM BKN015=



000
FTUS41 KRLX 180900 AAB
TAFCRW
TAF AMD
KCRW 180949Z 1810/1906 VRB03KT P6SM SCT040
     FM181100 VRB03KT 6SM BR SCT040
     FM181300 00000KT P6SM SCT035
     FM181800 03006KT P6SM SCT250
     FM190300 07006KT P6SM FEW050=



000
FTUS41 KRLX 180900 AAB
TAFCRW
TAF AMD
KCRW 180949Z 1810/1906 VRB03KT P6SM SCT040
     FM181100 VRB03KT 6SM BR SCT040
     FM181300 00000KT P6SM SCT035
     FM181800 03006KT P6SM SCT250
     FM190300 07006KT P6SM FEW050=



000
FTUS41 KRLX 180800 AAA
TAFCRW
TAF AMD
KCRW 180826Z 1808/1906 00000KT 6SM BR SCT040
     FM181000 00000KT 3SM BR SCT035
     FM181100 00000KT 1SM BR BKN003
     FM181230 00000KT 4SM BR BKN010
     FM181300 00000KT P6SM SCT015
     FM181400 00000KT P6SM SCT250
     FM181800 03006KT P6SM SCT250
     FM190300 07006KT P6SM FEW050=



000
FTUS41 KRLX 180800 AAA
TAFHTS
TAF AMD
KHTS 180826Z 1808/1906 00000KT P6SM SCT050
     FM181000 00000KT 6SM BR SCT050
     FM181300 VRB03KT P6SM SCT250
     FM182100 05007KT P6SM SCT250
     FM190300 07006KT P6SM FEW050=



000
FTUS41 KRLX 180800 AAA
TAFEKN
TAF AMD
KEKN 180826Z 1808/1906 00000KT 1/4SM FG VV001
     FM181200 00000KT 1/2SM FG BKN002
     FM181300 00000KT 2SM BR SCT008
     FM181400 00000KT P6SM SCT250
     FM181800 34006KT P6SM SCT250
     FM190300 04005KT P6SM FEW150
     FM190500 06006KT P6SM SCT050=



000
FTUS41 KRLX 180800 AAA
TAFBKW
TAF AMD
KBKW 180826Z 1808/1906 00000KT P6SM SCT035
     FM181200 00000KT P6SM BKN015
     FM181300 00000KT P6SM SCT015
     FM181400 04003KT P6SM SCT025
     FM181800 01006KT P6SM SCT035
     FM190400 07008KT P6SM BKN035
     FM190500 08009KT P6SM BKN025=



000
FTUS41 KRLX 180800 AAA
TAFPKB
TAF AMD
KPKB 180826Z 1808/1906 00000KT P6SM SCT250
     FM181000 00000KT 6SM BR SCT250
     FM181300 00000KT P6SM SCT250=



000
FTUS41 KRLX 180800 AAB
TAFCKB
TAF AMD
KCKB 180826Z 1808/1906 00000KT 1/4SM FG VV001
     FM181300 00000KT 4SM BR SCT003
     FM181400 00000KT P6SM FEW015
     FM181500 00000KT P6SM SCT250
     FM182100 36006KT P6SM SCT250
     FM190400 06005KT P6SM FEW150=



000
FTUS41 KRLX 180800 AAA
TAFHTS
TAF AMD
KHTS 180826Z 1808/1906 00000KT P6SM SCT050
     FM181000 00000KT 6SM BR SCT050
     FM181300 VRB03KT P6SM SCT250
     FM182100 05007KT P6SM SCT250
     FM190300 07006KT P6SM FEW050=



000
FTUS41 KRLX 180800 AAA
TAFCRW
TAF AMD
KCRW 180826Z 1808/1906 00000KT 6SM BR SCT040
     FM181000 00000KT 3SM BR SCT035
     FM181100 00000KT 1SM BR BKN003
     FM181230 00000KT 4SM BR BKN010
     FM181300 00000KT P6SM SCT015
     FM181400 00000KT P6SM SCT250
     FM181800 03006KT P6SM SCT250
     FM190300 07006KT P6SM FEW050=



000
FTUS41 KRLX 180800 AAA
TAFPKB
TAF AMD
KPKB 180826Z 1808/1906 00000KT P6SM SCT250
     FM181000 00000KT 6SM BR SCT250
     FM181300 00000KT P6SM SCT250=



000
FTUS41 KRLX 180800 AAB
TAFCKB
TAF AMD
KCKB 180826Z 1808/1906 00000KT 1/4SM FG VV001
     FM181300 00000KT 4SM BR SCT003
     FM181400 00000KT P6SM FEW015
     FM181500 00000KT P6SM SCT250
     FM182100 36006KT P6SM SCT250
     FM190400 06005KT P6SM FEW150=



000
FTUS41 KRLX 180800 AAA
TAFBKW
TAF AMD
KBKW 180826Z 1808/1906 00000KT P6SM SCT035
     FM181200 00000KT P6SM BKN015
     FM181300 00000KT P6SM SCT015
     FM181400 04003KT P6SM SCT025
     FM181800 01006KT P6SM SCT035
     FM190400 07008KT P6SM BKN035
     FM190500 08009KT P6SM BKN025=



000
FTUS41 KRLX 180800 AAA
TAFEKN
TAF AMD
KEKN 180826Z 1808/1906 00000KT 1/4SM FG VV001
     FM181200 00000KT 1/2SM FG BKN002
     FM181300 00000KT 2SM BR SCT008
     FM181400 00000KT P6SM SCT250
     FM181800 34006KT P6SM SCT250
     FM190300 04005KT P6SM FEW150
     FM190500 06006KT P6SM SCT050=



000
FTUS41 KRLX 180700 AAA
TAFCKB
TAF AMD
KCKB 180702Z 1807/1906 00000KT 1/4SM FG VV001
     FM181300 00000KT 4SM BR SCT003
     FM181400 00000KT P6SM FEW015
     FM181500 00000KT P6SM SCT250
     FM182100 36006KT P6SM SCT250
     FM190400 06005KT P6SM FEW150=



000
FTUS41 KRLX 180500 RRA
TAFCKB
TAF
KCKB 180550Z 1806/1906 00000KT 1 1/2SM BR SCT035
     FM180900 00000KT 1/2SM FG VV001
     FM181200 00000KT 4SM BR SCT003
     FM181300 00000KT P6SM FEW015
     FM181400 00000KT P6SM SCT250
     FM182100 36006KT P6SM SCT250
     FM190400 06005KT P6SM FEW150=



000
FTUS41 KRLX 180500
TAFHTS
TAF
KHTS 180536Z 1806/1906 00000KT P6SM SCT250
     FM180700 00000KT 6SM BR SCT250
     FM181300 VRB03KT P6SM SCT250
     FM182100 05007KT P6SM SCT250
     FM190300 07006KT P6SM FEW050=



000
FTUS41 KRLX 180500
TAFEKN
TAF
KEKN 180536Z 1806/1906 00000KT 1/4SM FG VV001
     FM181200 00000KT 1/2SM FG BKN002
     FM181300 00000KT 2SM BR SCT008
     FM181400 00000KT P6SM SCT250
     FM181800 34006KT P6SM SCT250
     FM190300 04005KT P6SM FEW150
     FM190500 06006KT P6SM SCT050=



000
FTUS41 KRLX 180500
TAFBKW
TAF
KBKW 180536Z 1806/1906 00000KT P6SM SCT035
     FM181200 00000KT P6SM BKN015
     FM181300 00000KT P6SM SCT015
     FM181400 04003KT P6SM SCT025
     FM181800 01006KT P6SM SCT035
     FM190400 07008KT P6SM BKN035
     FM190500 08009KT P6SM BKN025=



000
FTUS41 KRLX 180500
TAFCRW
TAF
KCRW 180536Z 1806/1906 00000KT 6SM BR SCT040
     FM180800 00000KT 3SM BR SCT035
     FM181000 00000KT 1SM BR BKN003
     FM181200 00000KT 4SM BR BKN010
     FM181300 00000KT P6SM SCT015
     FM181400 00000KT P6SM SCT250
     FM181800 03006KT P6SM SCT250
     FM190300 07006KT P6SM FEW050=



000
FTUS41 KRLX 180500
TAFPKB
TAF
KPKB 180536Z 1806/1906 00000KT P6SM SCT250
     FM180900 00000KT 6SM BR SCT250
     FM181300 00000KT P6SM SCT250=



000
FTUS41 KRLX 180500
TAFCKB
TAF
KCKB 180536Z 1806/1906 00000KT 4SM BR SCT250
     FM180700 00000KT 1 1/2SM BR SCT035
     FM180900 00000KT 1/2SM FG VV001
     FM181200 00000KT 4SM BR SCT003
     FM181300 00000KT P6SM FEW015
     FM181400 00000KT P6SM SCT250
     FM182100 36006KT P6SM SCT250
     FM190400 06005KT P6SM FEW150=



000
FTUS41 KRLX 180500
TAFPKB
TAF
KPKB 180536Z 1806/1906 00000KT P6SM SCT250
     FM180900 00000KT 6SM BR SCT250
     FM181300 00000KT P6SM SCT250=



000
FTUS41 KRLX 180500
TAFEKN
TAF
KEKN 180536Z 1806/1906 00000KT 1/4SM FG VV001
     FM181200 00000KT 1/2SM FG BKN002
     FM181300 00000KT 2SM BR SCT008
     FM181400 00000KT P6SM SCT250
     FM181800 34006KT P6SM SCT250
     FM190300 04005KT P6SM FEW150
     FM190500 06006KT P6SM SCT050=



000
FTUS41 KRLX 180500
TAFCRW
TAF
KCRW 180536Z 1806/1906 00000KT 6SM BR SCT040
     FM180800 00000KT 3SM BR SCT035
     FM181000 00000KT 1SM BR BKN003
     FM181200 00000KT 4SM BR BKN010
     FM181300 00000KT P6SM SCT015
     FM181400 00000KT P6SM SCT250
     FM181800 03006KT P6SM SCT250
     FM190300 07006KT P6SM FEW050=



000
FTUS41 KRLX 180500
TAFBKW
TAF
KBKW 180536Z 1806/1906 00000KT P6SM SCT035
     FM181200 00000KT P6SM BKN015
     FM181300 00000KT P6SM SCT015
     FM181400 04003KT P6SM SCT025
     FM181800 01006KT P6SM SCT035
     FM190400 07008KT P6SM BKN035
     FM190500 08009KT P6SM BKN025=



000
FTUS41 KRLX 180500
TAFHTS
TAF
KHTS 180536Z 1806/1906 00000KT P6SM SCT250
     FM180700 00000KT 6SM BR SCT250
     FM181300 VRB03KT P6SM SCT250
     FM182100 05007KT P6SM SCT250
     FM190300 07006KT P6SM FEW050=



000
FTUS41 KRLX 180500
TAFCKB
TAF
KCKB 180536Z 1806/1906 00000KT 4SM BR SCT250
     FM180700 00000KT 1 1/2SM BR SCT035
     FM180900 00000KT 1/2SM FG VV001
     FM181200 00000KT 4SM BR SCT003
     FM181300 00000KT P6SM FEW015
     FM181400 00000KT P6SM SCT250
     FM182100 36006KT P6SM SCT250
     FM190400 06005KT P6SM FEW150=



000
FTUS41 KRLX 180200 AAA
TAFCRW
TAF AMD
KCRW 180216Z 1802/1824 VRB03KT P6SM SCT040 BKN250
     FM180700 00000KT 4SM BR FEW002 SCT040
     FM180900 00000KT 2SM BR SCT002
     FM181100 00000KT 4SM BR BKN010
     FM181300 VRB03KT 6SM HZ SCT020
     FM181600 02004KT P6SM SKC=



000
FTUS41 KRLX 180200 AAA
TAFEKN
TAF AMD
KEKN 180216Z 1802/1824 00000KT 1SM BR SCT002
      TEMPO 1802/1805 1/4SM FG BKN002
     FM180500 00000KT 1/4SM FG BKN002
     FM181300 VRB03KT 2SM BR SCT010
     FM181400 34005KT P6SM SKC=



000
FTUS41 KRLX 180200 AAA
TAFBKW
TAF AMD
KBKW 180216Z 1802/1824 32005KT P6SM SCT040
     FM180400 36003KT P6SM SCT020
     FM180900 36003KT 5SM BR BKN008
     FM181200 35004KT P6SM SCT015
     FM181400 04004KT P6SM SKC=



000
FTUS41 KRLX 180200 AAA
TAFPKB
TAF AMD
KPKB 180216Z 1802/1824 34004KT P6SM SCT250
     FM180400 00000KT P6SM SCT250
     FM180800 00000KT 4SM BR SCT002
     FM181300 00000KT P6SM SKC=



000
FTUS41 KRLX 180200 AAA
TAFHTS
TAF AMD
KHTS 180216Z 1802/1824 VRB03KT P6SM SCT050 BKN250
     FM180600 00000KT 4SM BR SCT250
     FM180800 00000KT 2SM BR SCT002
     FM181300 VRB03KT P6SM SCT020
     FM181600 05004KT P6SM SKC=



000
FTUS41 KRLX 180200 AAA
TAFCKB
TAF AMD
KCKB 180216Z 1802/1824 VRB03KT P6SM SCT250
     FM180500 00000KT 4SM BR FEW001
     FM180700 00000KT 1/2SM FG VV001
     FM181200 00000KT 4SM BR SCT010
     FM181300 00000KT P6SM SKC=



000
FTUS41 KRLX 172300
TAFCRW
TAF
KCRW 172329Z 1800/1824 VRB03KT P6SM SCT040 BKN250
     FM180700 00000KT 4SM BR FEW002 SCT040
     FM180900 00000KT 2SM BR SCT002
     FM181100 00000KT 4SM BR BKN010
     FM181300 VRB03KT 6SM HZ SCT020
     FM181600 02004KT P6SM SKC=



000
FTUS41 KRLX 172300
TAFBKW
TAF
KBKW 172329Z 1800/1824 32005KT P6SM SCT040
     FM180400 36003KT P6SM SCT020
     FM180900 36003KT 5SM BR BKN008
     FM181200 35004KT P6SM SCT015
     FM181400 04004KT P6SM SKC=



000
FTUS41 KRLX 172300
TAFHTS
TAF
KHTS 172329Z 1800/1824 VRB03KT P6SM SCT050 BKN250
     FM180800 00000KT 4SM BR FEW002
     FM181300 VRB03KT P6SM SCT020
     FM181600 05004KT P6SM SKC=



000
FTUS41 KRLX 172300
TAFPKB
TAF
KPKB 172329Z 1800/1824 34004KT P6SM SCT250
     FM180400 00000KT P6SM SCT250
     FM180800 00000KT 4SM BR SCT002
     FM181300 00000KT P6SM SKC=



000
FTUS41 KRLX 172300
TAFCKB
TAF
KCKB 172329Z 1800/1824 VRB03KT P6SM SCT035
     FM180200 VRB03KT P6SM SCT250
     FM180600 00000KT 4SM BR FEW001
     FM180800 00000KT 1SM BR SCT001
     FM180900 00000KT 1/2SM FG VV001
     FM181200 00000KT 4SM BR SCT010
     FM181300 00000KT P6SM SKC=



000
FTUS41 KRLX 172300
TAFEKN
TAF
KEKN 172329Z 1800/1824 00000KT P6SM SCT040
     FM180400 00000KT 4SM BR FEW003
     FM180600 00000KT 2SM BR SCT002
     FM180800 00000KT 3/4SM BR BKN002
     FM181300 VRB03KT 4SM BR SCT010
     FM181400 34005KT P6SM SKC=



000
FTUS41 KRLX 172300
TAFCRW
TAF
KCRW 172329Z 1800/1824 VRB03KT P6SM SCT040 BKN250
     FM180700 00000KT 4SM BR FEW002 SCT040
     FM180900 00000KT 2SM BR SCT002
     FM181100 00000KT 4SM BR BKN010
     FM181300 VRB03KT 6SM HZ SCT020
     FM181600 02004KT P6SM SKC=



000
FTUS41 KRLX 172300
TAFEKN
TAF
KEKN 172329Z 1800/1824 00000KT P6SM SCT040
     FM180400 00000KT 4SM BR FEW003
     FM180600 00000KT 2SM BR SCT002
     FM180800 00000KT 3/4SM BR BKN002
     FM181300 VRB03KT 4SM BR SCT010
     FM181400 34005KT P6SM SKC=



000
FTUS41 KRLX 172300
TAFPKB
TAF
KPKB 172329Z 1800/1824 34004KT P6SM SCT250
     FM180400 00000KT P6SM SCT250
     FM180800 00000KT 4SM BR SCT002
     FM181300 00000KT P6SM SKC=



000
FTUS41 KRLX 172300
TAFCKB
TAF
KCKB 172329Z 1800/1824 VRB03KT P6SM SCT035
     FM180200 VRB03KT P6SM SCT250
     FM180600 00000KT 4SM BR FEW001
     FM180800 00000KT 1SM BR SCT001
     FM180900 00000KT 1/2SM FG VV001
     FM181200 00000KT 4SM BR SCT010
     FM181300 00000KT P6SM SKC=



000
FTUS41 KRLX 172300
TAFBKW
TAF
KBKW 172329Z 1800/1824 32005KT P6SM SCT040
     FM180400 36003KT P6SM SCT020
     FM180900 36003KT 5SM BR BKN008
     FM181200 35004KT P6SM SCT015
     FM181400 04004KT P6SM SKC=



000
FTUS41 KRLX 172300
TAFHTS
TAF
KHTS 172329Z 1800/1824 VRB03KT P6SM SCT050 BKN250
     FM180800 00000KT 4SM BR FEW002
     FM181300 VRB03KT P6SM SCT020
     FM181600 05004KT P6SM SKC=



000
FTUS41 KRLX 171900 AAA
TAFCKB
TAF AMD
KCKB 171952Z 1720/1818 23005KT 6SM HZ OVC014
     FM172100 28004KT 6SM HZ SCT020 BKN035
     FM180100 VRB03KT P6SM SCT035
     FM180700 00000KT 4SM BR FEW015
     FM180800 00000KT 1SM BR FEW001
     FM180900 00000KT 1/2SM FG VV001
     FM181200 00000KT 4SM BR SCT002
     FM181300 00000KT P6SM SCT050=



000
FTUS41 KRLX 171900 AAA
TAFEKN
TAF AMD
KEKN 171949Z 1720/1818 28006KT 6SM HZ OVC015
     FM172200 32005KT 6SM HZ BKN025
     FM180100 00000KT P6SM FEW250
     FM180400 00000KT 6SM BR FEW003
     FM180800 00000KT 3/4SM BR SCT001
     FM181200 00000KT 4SM BR FEW015
     FM181300 VRB03KT P6SM SCT050=



000
FTUS41 KRLX 171700
TAFBKW
TAF
KBKW 171738Z 1718/1818 27006KT P6SM SCT030 BKN040
     FM172100 32006KT P6SM SCT030
     FM172300 33004KT P6SM SCT250
     FM181100 36003KT P6SM BKN015
     FM181200 36003KT P6SM BKN008
     FM181400 35004KT P6SM SCT014=



000
FTUS41 KRLX 171700
TAFPKB
TAF
KPKB 171738Z 1718/1818 18005KT P6SM SCT020 BKN035
     FM180400 00000KT P6SM FEW250
     FM180800 00000KT 4SM BR FEW250
     FM181300 00000KT P6SM SCT050=



000
FTUS41 KRLX 171700
TAFHTS
TAF
KHTS 171738Z 1718/1818 VRB04KT P6SM SCT035 BKN050 OVC060
     FM180200 00000KT P6SM FEW250
     FM181100 VRB03KT 6SM BR FEW250
     FM181300 VRB03KT P6SM SCT050=



000
FTUS41 KRLX 171700
TAFEKN
TAF
KEKN 171738Z 1718/1818 00000KT 6SM -RA OVC019
     FM171900 28006KT P6SM SCT022
     FM180100 00000KT P6SM FEW250
     FM180500 00000KT 6SM BR FEW003
     FM180900 00000KT 3/4SM BR SCT001
     FM181200 00000KT 4SM BR FEW015
     FM181300 VRB03KT P6SM SCT050=



000
FTUS41 KRLX 171700
TAFCRW
TAF
KCRW 171738Z 1718/1818 26008G16KT P6SM BKN029 BKN090
     FM172200 00000KT P6SM SCT030
     FM180700 00000KT 4SM BR FEW025
     FM181200 00000KT P6SM SKC
     FM181600 02004KT P6SM SCT050=



000
FTUS41 KRLX 171700
TAFCKB
TAF
KCKB 171738Z 1718/1818 23005KT P6SM OVC014
     FM172300 00000KT P6SM SCT025
     FM180700 00000KT 4SM BR FEW015
     FM180800 00000KT 1SM BR FEW001
     FM180900 00000KT 1/2SM FG VV001
     FM181200 00000KT 4SM BR SCT002
     FM181300 00000KT P6SM SCT050=



000
FTUS41 KRLX 171500 AAA
TAFPKB
TAF AMD
KPKB 171500Z 1715/1812 23005KT P6SM BKN007 BKN015 OVC025
     FM171600 25004KT P6SM BKN025
     FM172300 31004KT P6SM FEW120
     FM181100 00000KT 6SM BR SCT250=



000
FTUS41 KRLX 171500 AAA
TAFHTS
TAF AMD
KHTS 171500Z 1715/1812 23008KT P6SM OVC022
     FM171600 25004KT P6SM SCT025
     FM172300 32004KT P6SM SCT035
     FM180300 00000KT P6SM FEW140
     FM181000 00000KT 6SM BR SKC=



000
FTUS41 KRLX 171500 AAA
TAFBKW
TAF AMD
KBKW 171500Z 1715/1812 00000KT P6SM BKN021 OVC028
     FM172000 31006KT P6SM SCT025
     FM180200 00000KT P6SM SCT025
     FM180500 00000KT P6SM BKN025
     FM180600 00000KT 6SM BR BKN015=



000
FTUS41 KRLX 171500 AAA
TAFEKN
TAF AMD
KEKN 171500Z 1715/1812 00000KT P6SM BKN023 BKN035 OVC045
     FM172000 26005KT P6SM SCT025
     FM180200 00000KT P6SM BKN015
     FM180600 00000KT 1SM BR SCT001
     FM180800 00000KT 1/2SM FG VV001
     FM181100 00000KT 1 1/2SM BR BKN002=



000
FTUS41 KRLX 171500 AAA
TAFCRW
TAF AMD
KCRW 171500Z 1715/1812 23007KT P6SM BKN021 BKN035
     FM171800 23004KT P6SM SCT025
     FM180000 00000KT P6SM SCT035
     FM180400 00000KT P6SM FEW140
     FM180500 00000KT 6SM BR FEW150
     FM180600 00000KT 4SM BR FEW001=



000
FTUS41 KRLX 171500 AAA
TAFCKB
TAF AMD
KCKB 171500Z 1715/1812 23005KT P6SM OVC017
     FM171700 24005KT P6SM BKN025
     FM171800 24005KT P6SM SCT025
     FM180100 00000KT P6SM SCT070
     FM180500 00000KT 6SM BR SCT250
     FM180800 00000KT 3SM BR SCT250=



000
FTUS41 KRLX 171100
TAFBKW
TAF
KBKW 171138Z 1712/1812 00000KT P6SM BKN025
      TEMPO 1712/1713 BKN015
     FM171300 VRB03KT P6SM BKN015
     FM172000 31006KT P6SM SCT025
     FM180200 00000KT P6SM SCT025
     FM180500 00000KT P6SM BKN025
     FM180600 00000KT 6SM BR BKN015=



000
FTUS41 KRLX 171100
TAFCKB
TAF
KCKB 171138Z 1712/1812 VRB03KT 6SM SHRA BR BKN025
      TEMPO 1712/1714 2SM SHRA BR BKN015
     FM171400 23004KT P6SM BKN015
     FM171700 24005KT P6SM BKN025
     FM171800 24005KT P6SM SCT025
     FM180100 00000KT P6SM SCT070
     FM180500 00000KT 6SM BR SCT250
     FM180800 00000KT 3SM BR SCT250=



000
FTUS41 KRLX 171100
TAFEKN
TAF
KEKN 171138Z 1712/1812 00000KT 6SM -SHRA BR BKN015
      TEMPO 1713/1715 2SM SHRA BR BKN015
     FM171500 VRB03KT P6SM BKN015
     FM172000 26005KT P6SM SCT025
     FM180200 00000KT P6SM BKN015
     FM180600 00000KT 1SM BR SCT001
     FM180800 00000KT 1/2SM FG VV001
     FM181100 00000KT 1 1/2SM BR BKN002=



000
FTUS41 KRLX 171100
TAFHTS
TAF
KHTS 171138Z 1712/1812 VRB03KT P6SM BKN025
     FM171300 VRB03KT P6SM BKN015
     FM171600 25004KT P6SM SCT025
     FM172300 32004KT P6SM SCT035
     FM180300 00000KT P6SM FEW140
     FM181000 00000KT 6SM BR SKC=



000
FTUS41 KRLX 171100
TAFCRW
TAF
KCRW 171138Z 1712/1812 00000KT P6SM BKN025
     FM171300 VRB03KT P6SM BKN015
     FM171800 23004KT P6SM SCT025
     FM180000 00000KT P6SM SCT035
     FM180400 00000KT P6SM FEW140
     FM180500 00000KT 6SM BR FEW150
     FM180600 00000KT 4SM BR FEW001=



000
FTUS41 KRLX 171100
TAFPKB
TAF
KPKB 171138Z 1712/1812 VRB03KT 5SM -SHRA BR BKN022
     FM171300 VRB03KT P6SM BKN015
     FM171600 25004KT P6SM SCT025
     FM172300 31004KT P6SM FEW120
     FM181100 00000KT 6SM BR SCT250=



000
FTUS41 KRLX 171100
TAFBKW
TAF
KBKW 171138Z 1712/1812 00000KT P6SM BKN025
      TEMPO 1712/1713 BKN015
     FM171300 VRB03KT P6SM BKN015
     FM172000 31006KT P6SM SCT025
     FM180200 00000KT P6SM SCT025
     FM180500 00000KT P6SM BKN025
     FM180600 00000KT 6SM BR BKN015=



000
FTUS41 KRLX 171100
TAFHTS
TAF
KHTS 171138Z 1712/1812 VRB03KT P6SM BKN025
     FM171300 VRB03KT P6SM BKN015
     FM171600 25004KT P6SM SCT025
     FM172300 32004KT P6SM SCT035
     FM180300 00000KT P6SM FEW140
     FM181000 00000KT 6SM BR SKC=



000
FTUS41 KRLX 171100
TAFCKB
TAF
KCKB 171138Z 1712/1812 VRB03KT 6SM SHRA BR BKN025
      TEMPO 1712/1714 2SM SHRA BR BKN015
     FM171400 23004KT P6SM BKN015
     FM171700 24005KT P6SM BKN025
     FM171800 24005KT P6SM SCT025
     FM180100 00000KT P6SM SCT070
     FM180500 00000KT 6SM BR SCT250
     FM180800 00000KT 3SM BR SCT250=



000
FTUS41 KRLX 171100
TAFEKN
TAF
KEKN 171138Z 1712/1812 00000KT 6SM -SHRA BR BKN015
      TEMPO 1713/1715 2SM SHRA BR BKN015
     FM171500 VRB03KT P6SM BKN015
     FM172000 26005KT P6SM SCT025
     FM180200 00000KT P6SM BKN015
     FM180600 00000KT 1SM BR SCT001
     FM180800 00000KT 1/2SM FG VV001
     FM181100 00000KT 1 1/2SM BR BKN002=



000
FTUS41 KRLX 171100
TAFCRW
TAF
KCRW 171138Z 1712/1812 00000KT P6SM BKN025
     FM171300 VRB03KT P6SM BKN015
     FM171800 23004KT P6SM SCT025
     FM180000 00000KT P6SM SCT035
     FM180400 00000KT P6SM FEW140
     FM180500 00000KT 6SM BR FEW150
     FM180600 00000KT 4SM BR FEW001=



000
FTUS41 KRLX 171100
TAFPKB
TAF
KPKB 171138Z 1712/1812 VRB03KT 5SM -SHRA BR BKN022
     FM171300 VRB03KT P6SM BKN015
     FM171600 25004KT P6SM SCT025
     FM172300 31004KT P6SM FEW120
     FM181100 00000KT 6SM BR SCT250=



000
FTUS41 KRLX 170800 AAA
TAFBKW
TAF AMD
KBKW 170855Z 1709/1806 15005KT P6SM BKN025
      TEMPO 1709/1711 BKN015
     FM171100 00000KT 6SM -SHRA BR BKN025
     FM171300 VRB03KT 5SM -SHRA BR BKN015
     FM171900 30006KT P6SM BKN015
     FM172100 31006KT P6SM SCT025
     FM180200 00000KT P6SM SCT025
     FM180500 00000KT P6SM BKN025=



000
FTUS41 KRLX 170800 AAA
TAFEKN
TAF AMD
KEKN 170855Z 1709/1806 VRB03KT P6SM BKN035
      TEMPO 1709/1711 BKN025
     FM171100 00000KT 6SM -SHRA BR BKN025
     FM171300 00000KT 5SM -SHRA BR BKN015
     FM171800 27005KT P6SM BKN015
     FM172000 26005KT P6SM SCT025
     FM180100 00000KT P6SM SCT015
     FM180200 00000KT P6SM BKN015
     FM180400 00000KT P6SM SCT015=



000
FTUS41 KRLX 170800 AAA
TAFCRW
TAF AMD
KCRW 170855Z 1709/1806 00000KT P6SM BKN040
     FM171100 00000KT 5SM SHRA BR BKN025
     FM171300 VRB03KT 6SM BR BKN015
     FM171800 23004KT P6SM SCT025
     FM180000 00000KT P6SM SCT035
     FM180400 00000KT P6SM FEW140=



000
FTUS41 KRLX 170800 AAA
TAFPKB
TAF AMD
KPKB 170855Z 1709/1806 18004KT P6SM BKN080
     FM171000 VRB03KT 4SM SHRA BR OVC025
     FM171100 VRB03KT 4SM -SHRA BR BKN015
     FM171200 VRB03KT P6SM BKN015
     FM171600 25004KT P6SM SCT025
     FM172300 31004KT P6SM FEW120=



000
FTUS41 KRLX 170800 AAA
TAFHTS
TAF AMD
KHTS 170855Z 1709/1806 17004KT P6SM BKN035
     FM171000 21004KT 4SM SHRA BR OVC015
     FM171100 VRB03KT 4SM -SHRA BR OVC015
     FM171300 25004KT P6SM BKN015
     FM171600 25004KT P6SM SCT025
     FM172300 32004KT P6SM SCT035
     FM180300 00000KT P6SM FEW140=



000
FTUS41 KRLX 170800 AAB
TAFCKB
TAF AMD
KCKB 170855Z 1709/1806 00000KT P6SM OVC035
      TEMPO 1709/1711 BKN025
     FM171100 VRB03KT 4SM SHRA BR BKN025
     FM171200 VRB03KT 5SM -SHRA BR BKN015
     FM171400 23004KT P6SM BKN015
     FM171800 24005KT P6SM SCT025
     FM180100 00000KT P6SM SCT070=



000
FTUS41 KRLX 170500 AAA
TAFCKB
TAF AMD
KCKB 170549Z 1706/1806 00000KT 1SM BR SCT001 BKN040
      TEMPO 1706/1709 4SM BR
     FM170900 00000KT 6SM -SHRA BR OVC035
     FM171100 VRB03KT 4SM SHRA BR BKN025
     FM171200 VRB03KT 5SM -SHRA BR BKN015
     FM171400 23004KT P6SM BKN015
     FM171800 24005KT P6SM SCT025
     FM180100 00000KT P6SM SCT070=



000
FTUS41 KRLX 170500
TAFBKW
TAF
KBKW 170527Z 1706/1806 15005KT P6SM BKN050
     FM171000 VRB03KT P6SM BKN035
     FM171100 00000KT 6SM -SHRA BR BKN025
     FM171300 VRB03KT 5SM -SHRA BR BKN015
     FM171900 30006KT P6SM BKN015
     FM172100 31006KT P6SM SCT025
     FM180200 00000KT P6SM SCT025
     FM180500 00000KT P6SM BKN025=



000
FTUS41 KRLX 170500
TAFEKN
TAF
KEKN 170527Z 1706/1806 VRB03KT P6SM BKN035
     FM171100 00000KT 6SM -SHRA BR BKN025
     FM171300 00000KT 5SM -SHRA BR BKN015
     FM171800 27005KT P6SM BKN015
     FM172000 26005KT P6SM SCT025
     FM180100 00000KT P6SM SCT015
     FM180200 00000KT P6SM BKN015
     FM180400 00000KT P6SM SCT015=



000
FTUS41 KRLX 170500
TAFCRW
TAF
KCRW 170527Z 1706/1806 VRB03KT P6SM SCT050
     FM170700 00000KT P6SM BKN040
     FM171000 00000KT 6SM BR OVC035
     FM171100 00000KT 5SM SHRA BR BKN025
     FM171300 VRB03KT 6SM BR BKN015
     FM171800 23004KT P6SM SCT025
     FM180000 00000KT P6SM SCT035
     FM180400 00000KT P6SM FEW140=



000
FTUS41 KRLX 170500
TAFHTS
TAF
KHTS 170527Z 1706/1806 17004KT P6SM BKN035
     FM170800 20004KT 5SM -SHRA BR BKN025
     FM171000 21004KT 4SM SHRA BR OVC015
     FM171100 VRB03KT 4SM -SHRA BR OVC015
     FM171300 25004KT P6SM BKN015
     FM171600 25004KT P6SM SCT025
     FM172300 32004KT P6SM SCT035
     FM180300 00000KT P6SM FEW140=



000
FTUS41 KRLX 170500
TAFCKB
TAF
KCKB 170527Z 1706/1806 00000KT P6SM BKN040
     FM170900 00000KT 6SM -SHRA BR OVC035
     FM171100 VRB03KT 4SM SHRA BR BKN025
     FM171200 VRB03KT 5SM -SHRA BR BKN015
     FM171400 23004KT P6SM BKN015
     FM171800 24005KT P6SM SCT025
     FM180100 00000KT P6SM SCT070=



000
FTUS41 KRLX 170500
TAFPKB
TAF
KPKB 170527Z 1706/1806 18004KT P6SM BKN035
     FM170800 VRB03KT 4SM SHRA BR OVC025
     FM171100 VRB03KT 4SM -SHRA BR BKN015
     FM171200 VRB03KT P6SM BKN015
     FM171600 25004KT P6SM SCT025
     FM172300 31004KT P6SM FEW120=



000
FTUS41 KRLX 170500
TAFEKN
TAF
KEKN 170527Z 1706/1806 VRB03KT P6SM BKN035
     FM171100 00000KT 6SM -SHRA BR BKN025
     FM171300 00000KT 5SM -SHRA BR BKN015
     FM171800 27005KT P6SM BKN015
     FM172000 26005KT P6SM SCT025
     FM180100 00000KT P6SM SCT015
     FM180200 00000KT P6SM BKN015
     FM180400 00000KT P6SM SCT015=



000
FTUS41 KRLX 170500
TAFBKW
TAF
KBKW 170527Z 1706/1806 15005KT P6SM BKN050
     FM171000 VRB03KT P6SM BKN035
     FM171100 00000KT 6SM -SHRA BR BKN025
     FM171300 VRB03KT 5SM -SHRA BR BKN015
     FM171900 30006KT P6SM BKN015
     FM172100 31006KT P6SM SCT025
     FM180200 00000KT P6SM SCT025
     FM180500 00000KT P6SM BKN025=



000
FTUS41 KRLX 170500
TAFHTS
TAF
KHTS 170527Z 1706/1806 17004KT P6SM BKN035
     FM170800 20004KT 5SM -SHRA BR BKN025
     FM171000 21004KT 4SM SHRA BR OVC015
     FM171100 VRB03KT 4SM -SHRA BR OVC015
     FM171300 25004KT P6SM BKN015
     FM171600 25004KT P6SM SCT025
     FM172300 32004KT P6SM SCT035
     FM180300 00000KT P6SM FEW140=



000
FTUS41 KRLX 170500
TAFCRW
TAF
KCRW 170527Z 1706/1806 VRB03KT P6SM SCT050
     FM170700 00000KT P6SM BKN040
     FM171000 00000KT 6SM BR OVC035
     FM171100 00000KT 5SM SHRA BR BKN025
     FM171300 VRB03KT 6SM BR BKN015
     FM171800 23004KT P6SM SCT025
     FM180000 00000KT P6SM SCT035
     FM180400 00000KT P6SM FEW140=



000
FTUS41 KRLX 170500
TAFPKB
TAF
KPKB 170527Z 1706/1806 18004KT P6SM BKN035
     FM170800 VRB03KT 4SM SHRA BR OVC025
     FM171100 VRB03KT 4SM -SHRA BR BKN015
     FM171200 VRB03KT P6SM BKN015
     FM171600 25004KT P6SM SCT025
     FM172300 31004KT P6SM FEW120=



000
FTUS41 KRLX 170500
TAFCKB
TAF
KCKB 170527Z 1706/1806 00000KT P6SM BKN040
     FM170900 00000KT 6SM -SHRA BR OVC035
     FM171100 VRB03KT 4SM SHRA BR BKN025
     FM171200 VRB03KT 5SM -SHRA BR BKN015
     FM171400 23004KT P6SM BKN015
     FM171800 24005KT P6SM SCT025
     FM180100 00000KT P6SM SCT070=



000
FTUS41 KRLX 170200 AAA
TAFCKB
TAF AMD
KCKB 170247Z 1703/1724 15004KT P6SM SCT040 BKN080
     FM171000 21005KT P6SM BKN025
     FM171200 22004KT 5SM -SHRA BR BKN015
     FM171600 24004KT 6SM HZ BKN020
     FM171900 28005KT P6SM SCT025
     FM172200 30005KT P6SM SCT030=



000
FTUS41 KRLX 170200 AAA
TAFPKB
TAF AMD
KPKB 170247Z 1703/1724 16005KT P6SM BKN040
     FM170900 19005KT 5SM -SHRA BR OVC025
     FM171400 26004KT 6SM HZ BKN020
     FM171700 29004KT P6SM SCT025
     FM172100 32005KT P6SM SCT035=



000
FTUS41 KRLX 170200 AAA
TAFEKN
TAF AMD
KEKN 170247Z 1703/1724 17006KT P6SM SCT040 BKN080
     FM171000 23007KT P6SM BKN024
     FM171300 24005KT 5SM -SHRA BR OVC015
     FM171800 28005KT 6SM HZ BKN020
     FM172100 29006KT P6SM SCT025=



000
FTUS41 KRLX 170200 AAA
TAFBKW
TAF AMD
KBKW 170247Z 1703/1724 17008G16KT P6SM SCT020 BKN080
      TEMPO 1703/1707 BKN020
     FM170700 17006KT P6SM BKN040
     FM171200 23004KT 6SM BR BKN026
     FM171400 25005KT 5SM -SHRA BR OVC015
     FM171800 30005KT 6SM HZ BKN015
     FM172100 31005KT P6SM SCT020=



000
FTUS41 KRLX 170200 AAA
TAFHTS
TAF AMD
KHTS 170247Z 1703/1724 16007KT P6SM BKN040
     FM170900 20006KT 5SM -SHRA BR BKN020
     FM171500 27004KT 6SM HZ BKN020
     FM171800 29004KT P6SM SCT025
     FM172200 32004KT P6SM SCT035=



000
FTUS41 KRLX 170200 AAA
TAFCRW
TAF AMD
KCRW 170247Z 1703/1724 15005KT P6SM BKN045
     FM170900 20006KT P6SM BKN026
     FM171100 22005KT 6SM HZ OVC020
     FM171300 24005KT 5SM -SHRA BR OVC018
     FM171700 26005KT 6SM HZ BKN020
     FM172000 29004KT P6SM SCT025=



000
FTUS41 KRLX 162300
TAFCKB
TAF
KCKB 162333Z 1700/1724 17008G15KT 6SM -RA BKN040 OVC060
     FM170200 18009KT P6SM SCT040 BKN080
     FM171000 21005KT P6SM BKN025
     FM171200 22004KT 5SM -SHRA BR BKN015
     FM171600 24004KT 6SM HZ BKN020
     FM171900 28005KT P6SM SCT025
     FM172200 30005KT P6SM SCT030=



000
FTUS41 KRLX 162300
TAFBKW
TAF
KBKW 162333Z 1700/1724 16012G16KT P6SM BKN018
      TEMPO 1700/1704 SCT020 BKN045
     FM170600 17008KT P6SM BKN030
     FM171200 23004KT 6SM BR BKN026
     FM171400 25005KT 5SM -SHRA BR OVC015
     FM171800 30005KT 6SM HZ BKN015
     FM172100 31005KT P6SM SCT020=



000
FTUS41 KRLX 162300
TAFPKB
TAF
KPKB 162333Z 1700/1724 17006KT P6SM BKN040
     FM170600 18007KT P6SM OVC035
     FM170800 19005KT 5SM -SHRA BR OVC020
     FM171400 26004KT 6SM HZ BKN020
     FM171700 29004KT P6SM SCT025
     FM172100 32005KT P6SM SCT035=



000
FTUS41 KRLX 162300
TAFCRW
TAF
KCRW 162333Z 1700/1724 15008G15KT P6SM SCT045 BKN080
     FM170300 17007KT P6SM BKN045
     FM170900 20006KT P6SM BKN026
     FM171100 22005KT 6SM HZ OVC020
     FM171300 24005KT 5SM -SHRA BR OVC018
     FM171700 26005KT 6SM HZ BKN020
     FM172000 29004KT P6SM SCT025=



000
FTUS41 KRLX 162300
TAFEKN
TAF
KEKN 162333Z 1700/1724 17008G15KT 6SM -SHRA OVC045
     FM170200 17008KT P6SM SCT040 BKN080
     FM171000 23007KT P6SM BKN024
     FM171300 24005KT 5SM -SHRA BR OVC015
     FM171800 28005KT 6SM HZ BKN020
     FM172100 29006KT P6SM SCT025=



000
FTUS41 KRLX 162300
TAFHTS
TAF
KHTS 162333Z 1700/1724 16007KT P6SM BKN040
     FM170800 20006KT 5SM -SHRA BR OVC020
     FM171500 27004KT 6SM HZ BKN020
     FM171800 29004KT P6SM SCT025
     FM172200 32004KT P6SM SCT035=



000
FTUS41 KRLX 162300
TAFCRW
TAF
KCRW 162333Z 1700/1724 15008G15KT P6SM SCT045 BKN080
     FM170300 17007KT P6SM BKN045
     FM170900 20006KT P6SM BKN026
     FM171100 22005KT 6SM HZ OVC020
     FM171300 24005KT 5SM -SHRA BR OVC018
     FM171700 26005KT 6SM HZ BKN020
     FM172000 29004KT P6SM SCT025=



000
FTUS41 KRLX 162300
TAFBKW
TAF
KBKW 162333Z 1700/1724 16012G16KT P6SM BKN018
      TEMPO 1700/1704 SCT020 BKN045
     FM170600 17008KT P6SM BKN030
     FM171200 23004KT 6SM BR BKN026
     FM171400 25005KT 5SM -SHRA BR OVC015
     FM171800 30005KT 6SM HZ BKN015
     FM172100 31005KT P6SM SCT020=



000
FTUS41 KRLX 162300
TAFPKB
TAF
KPKB 162333Z 1700/1724 17006KT P6SM BKN040
     FM170600 18007KT P6SM OVC035
     FM170800 19005KT 5SM -SHRA BR OVC020
     FM171400 26004KT 6SM HZ BKN020
     FM171700 29004KT P6SM SCT025
     FM172100 32005KT P6SM SCT035=



000
FTUS41 KRLX 162300
TAFCKB
TAF
KCKB 162333Z 1700/1724 17008G15KT 6SM -RA BKN040 OVC060
     FM170200 18009KT P6SM SCT040 BKN080
     FM171000 21005KT P6SM BKN025
     FM171200 22004KT 5SM -SHRA BR BKN015
     FM171600 24004KT 6SM HZ BKN020
     FM171900 28005KT P6SM SCT025
     FM172200 30005KT P6SM SCT030=



000
FTUS41 KRLX 162300
TAFHTS
TAF
KHTS 162333Z 1700/1724 16007KT P6SM BKN040
     FM170800 20006KT 5SM -SHRA BR OVC020
     FM171500 27004KT 6SM HZ BKN020
     FM171800 29004KT P6SM SCT025
     FM172200 32004KT P6SM SCT035=



000
FTUS41 KRLX 162300
TAFEKN
TAF
KEKN 162333Z 1700/1724 17008G15KT 6SM -SHRA OVC045
     FM170200 17008KT P6SM SCT040 BKN080
     FM171000 23007KT P6SM BKN024
     FM171300 24005KT 5SM -SHRA BR OVC015
     FM171800 28005KT 6SM HZ BKN020
     FM172100 29006KT P6SM SCT025=



000
FTUS41 KRLX 162000 AAA
TAFBKW
TAF AMD
KBKW 162013Z 1620/1718 15014G25KT P6SM BKN020
     FM162100 14015G23KT 6SM -SHRA OVC018
     FM162300 14013G21KT P6SM BKN018
     FM170800 17008KT P6SM BKN015
     FM171200 23004KT 6SM BR BKN012
     FM171600 28007KT 6SM HZ OVC012=



000
FTUS41 KRLX 161900 AAA
TAFCRW
TAF AMD
KCRW 161930Z 1620/1718 14010G21KT P6SM BKN070 BKN160
     FM162000 15013G20KT P6SM OVC045
      TEMPO 1620/1622 6SM -SHRA
     FM170500 17009KT P6SM BKN045
     FM170800 18006KT P6SM BKN026
     FM171000 19005KT P6SM BKN016
     FM171700 VRB03KT P6SM SCT022=



000
FTUS41 KRLX 161900 AAA
TAFCRW
TAF AMD
KCRW 161930Z 1620/1718 14010G21KT P6SM BKN070 BKN160
     FM162000 15013G20KT P6SM OVC045
      TEMPO 1620/1622 6SM -SHRA
     FM170500 17009KT P6SM BKN045
     FM170800 18006KT P6SM BKN026
     FM171000 19005KT P6SM BKN016
     FM171700 VRB03KT P6SM SCT022=



    US Dept of Commerce
    National Oceanic and Atmospheric Administration
    National Weather Service
    1325 East West Highway
    Silver Spring, MD 20910
    Page Author: NWS Internet Services Team
Disclaimer
Information Quality
Credits
Glossary
Privacy Policy
Freedom of Information Act (FOIA)
About Us
Career Opportunities